createdAt,value
2023-11-16T00:00:00.479Z,97832.05
2023-11-16T00:02:27.892Z,97828.48
2023-11-16T00:04:55.357Z,97824.39
2023-11-16T00:07:24.552Z,97823.95
2023-11-16T00:09:51.521Z,97830.48
2023-11-16T00:12:19.045Z,97843.91
2023-11-16T00:14:46.800Z,97844.42
2023-11-16T00:17:13.849Z,97842.01
2023-11-16T00:19:43.676Z,97848.77
2023-11-16T00:22:10.720Z,97846.77
2023-11-16T00:24:37.714Z,97850.09
2023-11-16T00:27:06.462Z,97849.33
2023-11-16T00:29:33.392Z,97844.44
2023-11-16T00:32:00.368Z,97854.89
2023-11-16T00:34:27.586Z,97856.88
2023-11-16T00:36:54.958Z,97858.86
2023-11-16T00:39:22.124Z,97866.92
2023-11-16T00:41:49.336Z,97869.55
2023-11-16T00:44:20.181Z,97871.11
2023-11-16T00:46:49.469Z,97862.77
2023-11-16T00:49:16.551Z,97869.54
2023-11-16T00:51:43.866Z,97882.68
2023-11-16T00:54:14.844Z,97886.61
2023-11-16T00:56:41.779Z,97894.39
2023-11-16T00:59:10.851Z,97908.20
2023-11-16T01:01:38.853Z,97909.86
2023-11-16T01:04:07.387Z,97921.05
2023-11-16T01:06:34.391Z,97914.65
2023-11-16T01:09:07.513Z,97917.70
2023-11-16T01:11:37.264Z,97927.15
2023-11-16T01:14:04.602Z,97914.21
2023-11-16T01:16:35.969Z,97926.11
2023-11-16T01:19:02.997Z,97925.25
2023-11-16T01:21:30.612Z,97914.29
2023-11-16T01:24:06.347Z,97916.68
2023-11-16T01:26:36.130Z,97922.55
2023-11-16T01:29:07.360Z,97929.00
2023-11-16T01:31:35.540Z,97930.86
2023-11-16T01:34:02.495Z,97936.17
2023-11-16T01:36:29.994Z,97937.67
2023-11-16T01:38:58.428Z,97935.89
2023-11-16T01:41:25.369Z,97939.78
2023-11-16T01:43:52.485Z,97948.65
2023-11-16T01:46:21.542Z,97947.41
2023-11-16T01:48:49.057Z,97950.50
2023-11-16T01:51:16.693Z,97951.50
2023-11-16T01:53:54.874Z,97954.04
2023-11-16T01:56:21.889Z,97956.88
2023-11-16T01:58:48.854Z,97952.35
2023-11-16T02:01:16.851Z,97948.78
2023-11-16T02:03:48.131Z,97952.52
2023-11-16T02:06:16.772Z,97951.89
2023-11-16T02:08:46.645Z,97949.42
2023-11-16T02:11:15.147Z,97953.02
2023-11-16T02:13:43.296Z,97946.91
2023-11-16T02:16:10.460Z,97957.74
2023-11-16T02:18:39.289Z,97962.01
2023-11-16T02:21:07.861Z,97958.34
2023-11-16T02:23:35.520Z,97966.60
2023-11-16T02:26:02.535Z,97952.37
2023-11-16T02:28:31.449Z,97970.51
2023-11-16T02:30:58.680Z,97966.84
2023-11-16T02:33:26.890Z,97972.66
2023-11-16T02:35:54.715Z,97964.71
2023-11-16T02:38:21.751Z,97972.71
2023-11-16T02:40:52.699Z,97979.98
2023-11-16T02:43:21.297Z,97983.14
2023-11-16T02:45:49.350Z,97994.91
2023-11-16T02:48:16.444Z,97987.00
2023-11-16T02:50:43.854Z,97982.59
2023-11-16T02:53:11.219Z,97985.72
2023-11-16T02:55:38.266Z,97983.08
2023-11-16T02:58:06.736Z,97983.56
2023-11-16T03:00:34.006Z,98007.78
2023-11-16T03:03:03.423Z,97999.82
2023-11-16T03:05:32.602Z,98018.98
2023-11-16T03:07:59.608Z,98026.36
2023-11-16T03:10:29.443Z,98027.52
2023-11-16T03:12:56.900Z,98031.46
2023-11-16T03:15:23.995Z,98030.16
2023-11-16T03:17:51.618Z,98032.25
2023-11-16T03:20:19.716Z,98033.48
2023-11-16T03:22:46.741Z,98034.95
2023-11-16T03:25:14.910Z,98032.59
2023-11-16T03:27:43.048Z,98038.70
2023-11-16T03:30:11.142Z,98038.27
2023-11-16T03:32:38.330Z,98049.49
2023-11-16T03:35:06.184Z,98040.14
2023-11-16T03:37:33.419Z,98050.54
2023-11-16T03:40:03.028Z,98052.36
2023-11-16T03:42:30.101Z,98054.91
2023-11-16T03:44:57.127Z,98050.74
2023-11-16T03:47:24.318Z,98058.08
2023-11-16T03:49:52.535Z,98066.90
2023-11-16T03:52:19.482Z,98078.90
2023-11-16T03:54:46.712Z,98068.80
2023-11-16T03:57:14.976Z,98068.64
2023-11-16T03:59:42.055Z,98055.17
2023-11-16T04:02:09.031Z,98082.00
2023-11-16T04:04:36.260Z,98081.85
2023-11-16T04:07:03.440Z,98079.50
2023-11-16T04:09:31.191Z,98091.27
2023-11-16T04:11:58.331Z,98088.29
2023-11-16T04:14:26.245Z,98094.03
2023-11-16T04:16:54.120Z,98105.09
2023-11-16T04:19:22.496Z,98102.13
2023-11-16T04:21:50.608Z,98096.16
2023-11-16T04:24:17.668Z,98108.20
2023-11-16T04:26:45.952Z,98111.55
2023-11-16T04:29:15.019Z,98116.00
2023-11-16T04:31:43.651Z,98131.13
2023-11-16T04:34:12.704Z,98129.80
2023-11-16T04:36:42.225Z,98125.67
2023-11-16T04:39:09.866Z,98137.80
2023-11-16T04:41:36.932Z,98136.55
2023-11-16T04:44:05.681Z,98135.53
2023-11-16T04:46:32.658Z,98143.80
2023-11-16T04:49:01.127Z,98146.51
2023-11-16T04:51:28.334Z,98140.90
2023-11-16T04:53:56.972Z,98141.64
2023-11-16T04:56:23.849Z,98150.08
2023-11-16T04:58:51.190Z,98147.80
2023-11-16T05:01:18.378Z,98142.72
2023-11-16T05:03:45.930Z,98148.83
2023-11-16T05:06:14.145Z,98158.09
2023-11-16T05:08:42.229Z,98145.67
2023-11-16T05:11:09.272Z,98162.96
2023-11-16T05:13:36.344Z,98138.95
2023-11-16T05:16:06.561Z,98143.64
2023-11-16T05:18:33.899Z,98164.61
2023-11-16T05:21:02.710Z,98168.89
2023-11-16T05:23:29.946Z,98176.14
2023-11-16T05:25:58.049Z,98172.78
2023-11-16T05:28:26.822Z,98171.54
2023-11-16T05:30:54.164Z,98178.78
2023-11-16T05:33:23.656Z,98182.27
2023-11-16T05:35:54.124Z,98192.89
2023-11-16T05:38:22.761Z,98196.94
2023-11-16T05:40:52.676Z,98204.02
2023-11-16T05:43:20.588Z,98210.56
2023-11-16T05:45:48.097Z,98203.65
2023-11-16T05:48:15.923Z,98210.00
2023-11-16T05:50:43.464Z,98211.47
2023-11-16T05:53:11.848Z,98220.69
2023-11-16T05:55:38.953Z,98223.86
2023-11-16T05:58:10.199Z,98212.83
2023-11-16T06:00:37.812Z,98231.10
2023-11-16T06:03:05.566Z,98222.59
2023-11-16T06:05:39.675Z,98234.53
2023-11-16T06:08:06.710Z,98250.12
2023-11-16T06:10:33.733Z,98249.48
2023-11-16T06:13:01.202Z,98237.56
2023-11-16T06:15:31.246Z,98251.46
2023-11-16T06:18:03.443Z,98253.13
2023-11-16T06:20:30.827Z,98240.99
2023-11-16T06:22:57.786Z,98247.44
2023-11-16T06:25:24.734Z,98257.48
2023-11-16T06:27:51.935Z,98230.60
2023-11-16T06:30:19.363Z,98255.46
2023-11-16T06:32:46.443Z,98254.84
2023-11-16T06:35:14.765Z,98259.04
2023-11-16T06:37:42.028Z,98268.23
2023-11-16T06:40:09.981Z,98266.73
2023-11-16T06:42:38.379Z,98266.38
2023-11-16T06:45:06.463Z,98277.27
2023-11-16T06:47:34.715Z,98270.59
2023-11-16T06:50:04.093Z,98278.98
2023-11-16T06:52:31.354Z,98280.52
2023-11-16T06:54:58.356Z,98295.43
2023-11-16T06:57:28.387Z,98295.46
2023-11-16T06:59:55.688Z,98293.95
2023-11-16T07:02:23.505Z,98290.91
2023-11-16T07:04:50.626Z,98289.14
2023-11-16T07:07:17.927Z,98297.52
2023-11-16T07:09:47.024Z,98302.97
2023-11-16T07:12:15.716Z,98299.40
2023-11-16T07:14:48.096Z,98286.58
2023-11-16T07:17:20.837Z,98298.23
2023-11-16T07:19:49.218Z,98295.05
2023-11-16T07:22:16.390Z,98300.52
2023-11-16T07:24:44.854Z,98305.21
2023-11-16T07:27:12.826Z,98321.02
2023-11-16T07:29:43.483Z,98306.92
2023-11-16T07:32:12.078Z,98310.81
2023-11-16T07:34:40.128Z,98316.30
2023-11-16T07:37:07.408Z,98310.86
2023-11-16T07:39:34.955Z,98317.98
2023-11-16T07:42:02.459Z,98324.98
2023-11-16T07:44:29.645Z,98326.84
2023-11-16T07:46:57.337Z,98341.79
2023-11-16T07:49:24.457Z,98349.17
2023-11-16T07:51:52.788Z,98330.73
2023-11-16T07:54:20.483Z,98336.17
2023-11-16T07:56:54.674Z,98348.39
2023-11-16T07:59:31.494Z,98353.30
2023-11-16T08:02:01.407Z,98362.98
2023-11-16T08:04:28.711Z,98350.96
2023-11-16T08:06:57.161Z,98350.48
2023-11-16T08:09:25.433Z,98358.77
2023-11-16T08:11:55.537Z,98372.93
2023-11-16T08:14:25.758Z,98380.33
2023-11-16T08:16:57.330Z,98388.91
2023-11-16T08:19:27.780Z,98407.74
2023-11-16T08:21:56.757Z,98408.86
2023-11-16T08:24:24.718Z,98409.80
2023-11-16T08:26:51.944Z,98413.16
2023-11-16T08:29:19.201Z,98418.98
2023-11-16T08:31:53.519Z,98425.29
2023-11-16T08:34:21.276Z,98418.36
2023-11-16T08:36:48.538Z,98419.07
2023-11-16T08:39:18.499Z,98421.83
2023-11-16T08:41:46.106Z,98429.77
2023-11-16T08:44:14.342Z,98419.81
2023-11-16T08:46:44.741Z,98414.02
2023-11-16T08:49:11.859Z,98436.20
2023-11-16T08:51:39.784Z,98433.36
2023-11-16T08:54:09.580Z,98437.55
2023-11-16T08:56:41.583Z,98430.20
2023-11-16T08:59:10.098Z,98445.48
2023-11-16T09:01:40.824Z,98431.14
2023-11-16T09:04:13.443Z,98437.06
2023-11-16T09:06:43.974Z,98454.64
2023-11-16T09:09:31.316Z,98437.71
2023-11-16T09:11:59.839Z,98444.14
2023-11-16T09:14:28.180Z,98440.91
2023-11-16T09:17:12.154Z,98439.35
2023-11-16T09:19:41.419Z,98441.33
2023-11-16T09:22:10.045Z,98427.04
2023-11-16T09:24:37.989Z,98439.85
2023-11-16T09:27:05.276Z,98443.27
2023-11-16T09:29:37.212Z,98439.92
2023-11-16T09:32:05.911Z,98444.52
2023-11-16T09:34:32.958Z,98440.77
2023-11-16T09:37:01.155Z,98456.23
2023-11-16T09:39:29.077Z,98454.90
2023-11-16T09:41:56.269Z,98468.58
2023-11-16T09:44:24.923Z,98466.45
2023-11-16T09:46:53.241Z,98470.42
2023-11-16T09:49:25.160Z,98469.67
2023-11-16T09:51:52.725Z,98453.31
2023-11-16T09:54:23.273Z,98461.76
2023-11-16T09:56:50.294Z,98469.30
2023-11-16T09:59:28.352Z,98474.59
2023-11-16T10:02:08.910Z,98478.01
2023-11-16T10:04:42.203Z,98480.66
2023-11-16T10:07:17.523Z,98479.15
2023-11-16T10:09:45.348Z,98481.13
2023-11-16T10:12:13.064Z,98486.25
2023-11-16T10:14:53.523Z,98495.33
2023-11-16T10:17:22.316Z,98497.08
2023-11-16T10:19:51.102Z,98499.04
2023-11-16T10:22:18.347Z,98497.15
2023-11-16T10:24:48.681Z,98491.71
2023-11-16T10:27:15.716Z,98494.75
2023-11-16T10:29:42.844Z,98501.31
2023-11-16T10:32:10.850Z,98491.87
2023-11-16T10:34:38.546Z,98510.61
2023-11-16T10:37:05.718Z,98505.41
2023-11-16T10:39:33.717Z,98488.94
2023-11-16T10:42:02.374Z,98503.33
2023-11-16T10:44:30.280Z,98509.86
2023-11-16T10:46:57.984Z,98519.16
2023-11-16T10:49:28.597Z,98521.73
2023-11-16T10:51:57.368Z,98523.35
2023-11-16T10:54:24.801Z,98517.70
2023-11-16T10:56:54.429Z,98523.63
2023-11-16T10:59:22.257Z,98530.48
2023-11-16T11:01:49.390Z,98528.72
2023-11-16T11:04:16.789Z,98525.58
2023-11-16T11:06:43.955Z,98521.60
2023-11-16T11:09:16.590Z,98518.24
2023-11-16T11:11:44.860Z,98518.17
2023-11-16T11:14:14.062Z,98528.91
2023-11-16T11:16:41.609Z,98522.31
2023-11-16T11:19:10.161Z,98529.10
2023-11-16T11:21:49.885Z,98534.25
2023-11-16T11:24:16.984Z,98537.29
2023-11-16T11:26:49.173Z,98540.56
2023-11-16T11:29:17.032Z,98551.08
2023-11-16T11:31:53.538Z,98546.25
2023-11-16T11:34:28.062Z,98548.17
2023-11-16T11:36:54.987Z,98552.20
2023-11-16T11:39:27.338Z,98554.88
2023-11-16T11:42:00.424Z,98548.80
2023-11-16T11:44:27.980Z,98551.39
2023-11-16T11:46:58.380Z,98546.42
2023-11-16T11:49:26.380Z,98556.35
2023-11-16T11:51:54.143Z,98555.12
2023-11-16T11:54:36.712Z,98565.23
2023-11-16T11:57:05.728Z,98559.66
2023-11-16T11:59:33.118Z,98562.22
2023-11-16T12:02:10.208Z,98563.14
2023-11-16T12:04:38.205Z,98560.34
2023-11-16T12:07:08.537Z,98563.92
2023-11-16T12:09:42.426Z,98566.02
2023-11-16T12:12:10.750Z,98563.60
2023-11-16T12:14:46.637Z,98568.35
2023-11-16T12:17:19.638Z,98567.55
2023-11-16T12:19:50.837Z,98566.44
2023-11-16T12:22:20.995Z,98578.02
2023-11-16T12:24:48.155Z,98581.55
2023-11-16T12:27:19.374Z,98579.57
2023-11-16T12:30:17.335Z,98587.15
2023-11-16T12:32:44.952Z,98596.36
2023-11-16T12:35:13.171Z,98588.64
2023-11-16T12:37:40.115Z,98591.98
2023-11-16T12:40:10.014Z,98589.77
2023-11-16T12:42:38.146Z,98587.15
2023-11-16T12:45:06.087Z,98599.64
2023-11-16T12:47:37.918Z,98598.51
2023-11-16T12:50:07.025Z,98593.86
2023-11-16T12:52:37.161Z,98605.19
2023-11-16T12:55:10.575Z,98607.70
2023-11-16T12:57:38.623Z,98606.96
2023-11-16T13:00:09.579Z,98614.08
2023-11-16T13:02:37.739Z,98614.30
2023-11-16T13:05:07.898Z,98626.36
2023-11-16T13:07:35.722Z,98627.09
2023-11-16T13:10:04.035Z,98628.05
2023-11-16T13:12:31.451Z,98633.48
2023-11-16T13:15:01.570Z,98629.06
2023-11-16T13:17:29.044Z,98632.73
2023-11-16T13:19:56.807Z,98641.35
2023-11-16T13:22:23.841Z,98637.59
2023-11-16T13:24:50.935Z,98637.42
2023-11-16T13:27:18.331Z,98635.07
2023-11-16T13:29:46.298Z,98634.73
2023-11-16T13:32:13.606Z,98632.66
2023-11-16T13:34:40.612Z,98638.63
2023-11-16T13:37:07.593Z,98648.77
2023-11-16T13:39:34.720Z,98641.98
2023-11-16T13:42:02.056Z,98638.75
2023-11-16T13:44:29.312Z,98645.86
2023-11-16T13:46:56.502Z,98652.12
2023-11-16T13:49:23.621Z,98649.41
2023-11-16T13:51:50.782Z,98650.80
2023-11-16T13:54:17.895Z,98654.43
2023-11-16T13:56:49.354Z,98661.09
2023-11-16T13:59:18.852Z,98663.63
2023-11-16T14:01:46.687Z,98664.30
2023-11-16T14:04:14.436Z,98673.02
2023-11-16T14:06:43.406Z,98667.81
2023-11-16T14:09:14.062Z,98669.96
2023-11-16T14:11:41.673Z,98672.36
2023-11-16T14:14:09.910Z,98671.79
2023-11-16T14:16:39.437Z,98666.55
2023-11-16T14:19:08.669Z,98674.36
2023-11-16T14:21:36.000Z,98677.50
2023-11-16T14:24:07.402Z,98662.42
2023-11-16T14:26:35.517Z,98671.86
2023-11-16T14:29:02.895Z,98658.51
2023-11-16T14:31:30.409Z,98662.77
2023-11-16T14:33:57.809Z,98672.41
2023-11-16T14:36:24.966Z,98676.64
2023-11-16T14:38:52.108Z,98677.08
2023-11-16T14:41:19.772Z,98672.69
2023-11-16T14:43:46.813Z,98683.71
2023-11-16T14:46:13.979Z,98685.05
2023-11-16T14:48:41.657Z,98682.64
2023-11-16T14:51:11.662Z,98685.08
2023-11-16T14:53:40.515Z,98687.14
2023-11-16T14:56:14.019Z,98691.47
2023-11-16T14:58:41.272Z,98680.32
2023-11-16T15:01:08.293Z,98685.66
2023-11-16T15:03:35.520Z,98674.80
2023-11-16T15:06:02.605Z,98679.65
2023-11-16T15:08:29.652Z,98686.77
2023-11-16T15:10:56.701Z,98688.27
2023-11-16T15:13:23.862Z,98690.86
2023-11-16T15:15:51.297Z,98691.60
2023-11-16T15:18:19.105Z,98700.58
2023-11-16T15:20:46.322Z,98704.10
2023-11-16T15:23:13.369Z,98706.83
2023-11-16T15:25:40.930Z,98703.05
2023-11-16T15:28:08.832Z,98704.55
2023-11-16T15:30:36.019Z,98711.89
2023-11-16T15:33:04.098Z,98710.66
2023-11-16T15:35:31.280Z,98713.70
2023-11-16T15:37:59.457Z,98720.15
2023-11-16T15:40:26.899Z,98722.83
2023-11-16T15:42:54.410Z,98732.34
2023-11-16T15:45:21.706Z,98736.37
2023-11-16T15:47:49.312Z,98738.49
2023-11-16T15:50:16.534Z,98734.03
2023-11-16T15:52:43.986Z,98727.90
2023-11-16T15:55:11.919Z,98728.05
2023-11-16T15:57:43.031Z,98740.44
2023-11-16T16:00:10.974Z,98744.33
2023-11-16T16:02:39.955Z,98742.42
2023-11-16T16:05:08.491Z,98741.85
2023-11-16T16:07:35.786Z,98745.29
2023-11-16T16:10:06.156Z,98748.26
2023-11-16T16:12:34.125Z,98757.27
2023-11-16T16:15:01.259Z,98761.83
2023-11-16T16:17:28.314Z,98765.96
2023-11-16T16:19:56.351Z,98771.68
2023-11-16T16:22:24.434Z,98771.77
2023-11-16T16:24:51.363Z,98773.39
2023-11-16T16:27:20.467Z,98773.75
2023-11-16T16:29:47.515Z,98782.31
2023-11-16T16:32:14.545Z,98783.52
2023-11-16T16:34:41.616Z,98780.89
2023-11-16T16:37:08.684Z,98781.94
2023-11-16T16:39:35.804Z,98778.82
2023-11-16T16:42:03.250Z,98779.63
2023-11-16T16:44:31.686Z,98788.13
2023-11-16T16:46:59.243Z,98796.61
2023-11-16T16:49:28.591Z,98794.36
2023-11-16T16:54:04.385Z,98795.11
2023-11-16T16:56:32.116Z,98797.46
2023-11-16T16:59:00.199Z,98801.77
2023-11-16T17:01:28.035Z,98800.48
2023-11-16T17:03:56.588Z,98799.60
2023-11-16T17:06:26.066Z,98802.54
2023-11-16T17:08:53.918Z,98806.05
2023-11-16T17:11:21.773Z,98800.48
2023-11-16T17:13:53.539Z,98800.13
2023-11-16T17:16:25.090Z,98802.88
2023-11-16T17:18:53.303Z,98802.45
2023-11-16T17:21:24.644Z,98801.27
2023-11-16T17:23:52.741Z,98800.29
2023-11-16T17:26:21.158Z,98798.15
2023-11-16T17:28:49.921Z,98795.08
2023-11-16T17:31:19.027Z,98789.61
2023-11-16T17:33:47.086Z,98789.86
2023-11-16T17:36:14.996Z,98789.86
2023-11-16T17:38:44.438Z,98801.59
2023-11-16T17:41:14.098Z,98803.66
2023-11-16T17:43:42.377Z,98798.95
2023-11-16T17:46:10.323Z,98804.88
2023-11-16T17:48:38.245Z,98804.79
2023-11-16T17:51:07.261Z,98803.86
2023-11-16T17:53:35.173Z,98800.92
2023-11-16T17:56:02.938Z,98804.60
2023-11-16T17:58:32.541Z,98805.23
2023-11-16T18:01:00.652Z,98805.14
2023-11-16T18:03:28.704Z,98806.14
2023-11-16T18:05:56.952Z,98809.35
2023-11-16T18:08:27.720Z,98811.48
2023-11-16T18:11:00.704Z,98816.13
2023-11-16T18:13:31.168Z,98814.73
2023-11-16T18:16:00.129Z,98821.30
2023-11-16T18:18:28.264Z,98824.62
2023-11-16T18:20:58.494Z,98828.66
2023-11-16T18:23:27.063Z,98830.73
2023-11-16T18:25:57.460Z,98832.13
2023-11-16T18:28:27.827Z,98833.27
2023-11-16T18:30:57.353Z,98834.78
2023-11-16T18:33:25.446Z,98839.59
2023-11-16T18:35:55.464Z,98836.48
2023-11-16T18:38:23.959Z,98833.94
2023-11-16T18:40:52.079Z,98831.26
2023-11-16T18:43:21.673Z,98834.03
2023-11-16T18:45:50.073Z,98830.48
2023-11-16T18:48:18.226Z,98829.05
2023-11-16T18:50:46.408Z,98831.20
2023-11-16T18:53:15.100Z,98834.07
2023-11-16T18:55:43.089Z,98835.04
2023-11-16T18:58:11.106Z,98839.97
2023-11-16T19:00:40.444Z,98841.77
2023-11-16T19:03:16.259Z,98844.42
2023-11-16T19:05:45.659Z,98842.27
2023-11-16T19:08:16.207Z,98847.10
2023-11-16T19:10:44.344Z,98839.78
2023-11-16T19:13:13.162Z,98837.52
2023-11-16T19:15:42.168Z,98832.19
2023-11-16T19:18:12.920Z,98828.91
2023-11-16T19:20:41.203Z,98828.83
2023-11-16T19:23:13.599Z,98830.40
2023-11-16T19:25:48.306Z,98831.05
2023-11-16T19:28:16.519Z,98831.77
2023-11-16T19:30:44.870Z,98824.31
2023-11-16T19:33:16.148Z,98826.58
2023-11-16T19:35:44.285Z,98827.31
2023-11-16T19:38:14.788Z,98832.38
2023-11-16T19:40:46.053Z,98831.21
2023-11-16T19:43:15.458Z,98837.81
2023-11-16T19:45:43.530Z,98834.73
2023-11-16T19:48:11.549Z,98832.05
2023-11-16T19:50:43.116Z,98840.79
2023-11-16T19:53:10.982Z,98841.77
2023-11-16T19:55:39.592Z,98842.94
2023-11-16T19:58:08.573Z,98847.77
2023-11-16T20:00:39.580Z,98846.72
2023-11-16T20:03:08.856Z,98848.42
2023-11-16T20:05:36.998Z,98841.55
2023-11-16T20:08:05.214Z,98842.80
2023-11-16T20:10:38.140Z,98840.96
2023-11-16T20:13:07.751Z,98837.33
2023-11-16T20:15:36.142Z,98835.65
2023-11-16T20:18:04.026Z,98839.98
2023-11-16T20:20:44.268Z,98844.65
2023-11-16T20:23:16.003Z,98841.48
2023-11-16T20:25:43.857Z,98845.90
2023-11-16T20:28:11.896Z,98847.18
2023-11-16T20:30:39.721Z,98841.61
2023-11-16T20:33:07.859Z,98848.14
2023-11-16T20:35:36.080Z,98854.35
2023-11-16T20:38:06.786Z,98859.59
2023-11-16T20:40:34.535Z,98861.52
2023-11-16T20:43:03.342Z,98863.06
2023-11-16T20:53:13.847Z,98855.05
2023-11-16T20:55:42.563Z,98850.45
2023-11-16T20:58:10.630Z,98848.56
2023-11-16T21:00:38.521Z,98855.84
2023-11-16T21:03:06.919Z,98854.08
2023-11-16T21:05:35.858Z,98859.17
2023-11-16T21:08:03.601Z,98861.69
2023-11-16T21:10:31.462Z,98869.48
2023-11-16T21:12:59.137Z,98867.27
2023-11-16T21:15:27.311Z,98876.09
2023-11-16T21:17:55.736Z,98875.79
2023-11-16T21:20:23.645Z,98878.75
2023-11-16T21:30:35.811Z,98891.61
2023-11-16T21:40:42.637Z,98882.55
2023-11-16T21:50:50.986Z,98901.23
2023-11-16T21:53:20.276Z,98900.99
2023-11-16T21:55:48.249Z,98906.29
2023-11-16T22:01:00.714Z,98900.25
2023-11-16T22:03:28.815Z,98905.45
2023-11-16T22:05:57.339Z,98905.04
2023-11-16T22:08:24.988Z,98904.92
2023-11-16T22:10:52.650Z,98903.31
2023-11-16T22:13:21.097Z,98903.54
2023-11-16T22:22:50.243Z,98895.02
2023-11-16T22:25:18.398Z,98889.23
2023-11-16T22:27:47.511Z,98886.99
2023-11-16T22:30:21.351Z,98886.14
2023-11-16T22:32:49.179Z,98880.73
2023-11-16T22:35:18.986Z,98879.16
2023-11-16T22:37:47.941Z,98880.70
2023-11-16T22:40:17.994Z,98881.70
2023-11-16T22:42:47.142Z,98882.30
2023-11-16T22:45:15.124Z,98882.98
2023-11-16T22:47:45.143Z,98893.14
2023-11-16T22:50:13.647Z,98896.35
2023-11-16T22:52:41.473Z,98902.42
2023-11-16T23:02:53.266Z,98918.64
2023-11-16T23:05:22.316Z,98915.59
2023-11-16T23:07:53.242Z,98913.07
2023-11-16T23:10:20.931Z,98906.52
2023-11-16T23:20:29.239Z,98916.47
2023-11-16T23:22:57.231Z,98917.17
2023-11-16T23:25:25.018Z,98911.77
2023-11-16T23:27:52.786Z,98906.88
2023-11-16T23:36:55.708Z,98900.02
2023-11-16T23:39:24.992Z,98893.50
2023-11-16T23:41:52.851Z,98888.81
2023-11-16T23:44:22.494Z,98889.56
2023-11-16T23:46:50.355Z,98888.08
2023-11-16T23:56:53.762Z,98882.67
2023-11-16T23:59:22.046Z,98889.26
